createdAt,value
2023-03-27T00:00:02.699Z,4.01
2023-03-27T00:05:02.412Z,4.03
2023-03-27T00:10:02.455Z,4.03
2023-03-27T00:15:02.404Z,3.87
2023-03-27T00:20:03.174Z,3.81
2023-03-27T00:25:02.984Z,3.85
2023-03-27T00:30:02.743Z,3.74
2023-03-27T00:35:03.078Z,3.65
2023-03-27T00:40:02.526Z,3.56
2023-03-27T00:45:02.252Z,3.48
2023-03-27T00:50:02.333Z,3.42
2023-03-27T00:55:04.023Z,3.42
2023-03-27T01:00:03.046Z,3.41
2023-03-27T01:05:02.596Z,3.44
2023-03-27T01:10:02.591Z,3.39
2023-03-27T01:15:02.787Z,3.37
2023-03-27T01:20:02.796Z,3.25
2023-03-27T01:25:02.979Z,3.14
2023-03-27T01:30:02.760Z,3.08
2023-03-27T01:35:03.775Z,3.07
2023-03-27T01:40:02.261Z,2.98
2023-03-27T01:45:02.223Z,2.97
2023-03-27T01:50:02.940Z,2.91
2023-03-27T01:55:03.714Z,2.93
2023-03-27T02:00:17.792Z,2.89
2023-03-27T02:05:02.447Z,2.89
2023-03-27T02:10:02.285Z,2.9
2023-03-27T02:15:22.868Z,2.89
2023-03-27T02:20:02.468Z,2.87
2023-03-27T02:25:02.397Z,2.85
2023-03-27T02:30:02.322Z,2.82
2023-03-27T02:35:03.124Z,2.81
2023-03-27T02:40:03.162Z,2.74
2023-03-27T02:45:02.843Z,2.77
2023-03-27T02:50:02.701Z,2.76
2023-03-27T02:55:02.885Z,2.7
2023-03-27T03:00:03.214Z,2.69
2023-03-27T03:05:02.962Z,2.68
2023-03-27T03:10:02.934Z,2.75
2023-03-27T03:15:02.579Z,2.76
2023-03-27T03:20:02.403Z,2.71
2023-03-27T03:25:03.244Z,2.65
2023-03-27T03:30:02.983Z,2.57
2023-03-27T03:35:02.940Z,2.51
2023-03-27T03:40:02.750Z,2.46
2023-03-27T03:45:02.481Z,2.47
2023-03-27T03:50:03.107Z,2.47
2023-03-27T03:55:04.145Z,2.41
2023-03-27T04:00:02.799Z,2.41
2023-03-27T04:05:08.544Z,2.4
2023-03-27T04:10:02.333Z,2.4
2023-03-27T04:15:03.135Z,2.3
2023-03-27T04:20:02.317Z,2.21
2023-03-27T04:25:03.059Z,2.16
2023-03-27T04:30:02.852Z,2.18
2023-03-27T04:35:02.600Z,2.11
2023-03-27T04:40:02.480Z,2.12
2023-03-27T04:45:02.282Z,2.1
2023-03-27T04:50:02.914Z,2.05
2023-03-27T04:55:03.791Z,1.93
2023-03-27T05:00:02.448Z,1.76
2023-03-27T05:05:03.083Z,1.57
2023-03-27T05:10:02.880Z,1.44
2023-03-27T05:15:02.680Z,1.41
2023-03-27T05:20:02.572Z,1.43
2023-03-27T05:25:02.226Z,1.39
2023-03-27T05:30:02.961Z,1.29
2023-03-27T05:35:02.708Z,1.21
2023-03-27T05:40:02.880Z,1.29
2023-03-27T05:45:03.226Z,1.43
2023-03-27T05:50:02.655Z,1.34
2023-03-27T05:55:03.536Z,1.32
2023-03-27T06:00:03.121Z,1.42
2023-03-27T06:05:02.891Z,1.58
2023-03-27T06:10:02.732Z,1.75
2023-03-27T06:15:02.611Z,2.5
2023-03-27T06:20:02.298Z,2.05
2023-03-27T06:25:03.012Z,1.97
2023-03-27T06:30:02.781Z,1.86
2023-03-27T06:35:02.829Z,2.28
2023-03-27T06:40:02.576Z,2.61
2023-03-27T06:45:02.549Z,3.19
2023-03-27T06:50:03.171Z,3.39
2023-03-27T06:55:03.412Z,3.3
2023-03-27T07:00:03.162Z,2.98
2023-03-27T07:05:05.047Z,3.33
2023-03-27T07:10:02.739Z,2.29
2023-03-27T07:15:02.585Z,2.28
2023-03-27T07:20:02.379Z,2.74
2023-03-27T07:25:03.108Z,2.33
2023-03-27T07:30:03.283Z,2.21
2023-03-27T07:35:02.564Z,2.42
2023-03-27T07:40:02.519Z,2.68
2023-03-27T07:45:04.285Z,3.25
2023-03-27T07:50:03.095Z,2.75
2023-03-27T07:55:03.576Z,3.5
2023-03-27T08:00:02.621Z,3.52
2023-03-27T08:05:02.788Z,4.33
2023-03-27T08:10:02.291Z,5.16
2023-03-27T08:15:03.158Z,5.03
2023-03-27T08:20:02.923Z,3.38
2023-03-27T08:25:02.618Z,4.02
2023-03-27T08:30:02.698Z,3.94
2023-03-27T08:35:02.291Z,4.55
2023-03-27T08:40:03.045Z,5.01
2023-03-27T08:45:02.291Z,5.01
2023-03-27T08:50:02.933Z,4.3
2023-03-27T08:55:03.786Z,4.31
2023-03-27T09:00:02.860Z,4.95
2023-03-27T09:05:02.566Z,4.35
2023-03-27T09:10:02.563Z,4
2023-03-27T09:15:02.250Z,5.08
2023-03-27T09:20:03.056Z,4.53
2023-03-27T09:25:03.134Z,4.28
2023-03-27T09:30:05.097Z,3.98
2023-03-27T09:35:02.261Z,5.96
2023-03-27T09:40:03.064Z,4.53
2023-03-27T09:45:02.873Z,4.61
2023-03-27T09:50:02.766Z,5.2
2023-03-27T09:55:03.018Z,4.57
2023-03-27T10:00:02.315Z,6.18
2023-03-27T10:05:02.999Z,5.14
2023-03-27T10:10:02.953Z,4.97
2023-03-27T10:15:02.727Z,5.23
2023-03-27T10:20:02.543Z,4.72
2023-03-27T10:25:02.525Z,5.2
2023-03-27T10:30:02.469Z,6.22
2023-03-27T10:35:03.071Z,5.88
2023-03-27T10:40:02.871Z,5.34
2023-03-27T10:45:02.785Z,4.54
2023-03-27T10:50:02.570Z,5.98
2023-03-27T10:55:03.703Z,6.54
2023-03-27T11:00:02.464Z,7.23
2023-03-27T11:05:03.076Z,7.27
2023-03-27T11:10:02.779Z,6.46
2023-03-27T11:15:02.476Z,6.4
2023-03-27T11:20:02.233Z,7.09
2023-03-27T11:25:02.240Z,7.51
2023-03-27T11:30:02.956Z,5.59
2023-03-27T11:35:04.191Z,3.98
2023-03-27T11:40:02.360Z,4.32
2023-03-27T11:45:03.128Z,6.1
2023-03-27T11:50:03.143Z,5.09
2023-03-27T11:55:04.095Z,6.41
2023-03-27T12:00:02.762Z,7.4
2023-03-27T12:05:02.752Z,7.08
2023-03-27T12:10:02.501Z,7.37
2023-03-27T12:15:02.212Z,7.86
2023-03-27T12:20:02.949Z,5.77
2023-03-27T12:25:02.953Z,5.03
2023-03-27T12:30:02.609Z,4.34
2023-03-27T12:35:02.252Z,3.07
2023-03-27T12:40:03.026Z,2.66
2023-03-27T12:45:03.127Z,3.19
2023-03-27T12:50:02.596Z,4
2023-03-27T12:55:03.535Z,3.5
2023-03-27T13:00:03.206Z,3.48
2023-03-27T13:05:04.069Z,4.52
2023-03-27T13:10:02.441Z,4.89
2023-03-27T13:15:03.423Z,4.55
2023-03-27T13:20:03.093Z,5.12
2023-03-27T13:25:03.488Z,5.12
2023-03-27T13:30:02.820Z,5.26
2023-03-27T13:35:02.479Z,5.35
2023-03-27T13:40:02.295Z,4.23
2023-03-27T13:45:03.139Z,3.95
2023-03-27T13:50:02.858Z,5
2023-03-27T13:55:03.298Z,5.32
2023-03-27T14:00:02.778Z,4.92
2023-03-27T14:05:02.201Z,5.84
2023-03-27T14:10:02.288Z,4.54
2023-03-27T14:15:03.114Z,4.78
2023-03-27T14:20:03.084Z,4.54
2023-03-27T14:25:02.957Z,4.3
2023-03-27T14:30:02.884Z,6.02
2023-03-27T14:35:02.682Z,5.35
2023-03-27T14:40:02.702Z,6.37
2023-03-27T14:45:02.532Z,6.28
2023-03-27T14:50:02.171Z,5.6
2023-03-27T14:55:04.177Z,4.94
2023-03-27T15:00:02.850Z,4.92
2023-03-27T15:05:02.841Z,4.83
2023-03-27T15:10:02.345Z,3.92
2023-03-27T15:15:03.192Z,3.55
2023-03-27T15:20:02.991Z,3.44
2023-03-27T15:25:03.101Z,2.51
2023-03-27T15:30:02.836Z,2.32
2023-03-27T15:35:02.480Z,2.66
2023-03-27T15:40:02.282Z,2.83
2023-03-27T15:45:03.055Z,2.47
2023-03-27T15:50:02.891Z,2.4
2023-03-27T15:55:03.116Z,2.49
2023-03-27T16:00:02.450Z,2.62
2023-03-27T16:05:02.209Z,2.21
2023-03-27T16:10:03.098Z,1.98
2023-03-27T16:15:05.893Z,1.87
2023-03-27T16:20:02.519Z,2.58
2023-03-27T16:25:03.161Z,2.7
2023-03-27T16:30:02.996Z,2.16
2023-03-27T16:35:02.617Z,2.65
2023-03-27T16:40:02.508Z,2.27
2023-03-27T16:45:02.350Z,2.09
2023-03-27T16:50:11.224Z,1.92
2023-03-27T16:55:07.145Z,2.36
2023-03-27T17:00:02.672Z,2.07
2023-03-27T17:05:02.358Z,1.77
2023-03-27T17:10:02.274Z,1.77
2023-03-27T17:15:02.258Z,1.68
2023-03-27T17:20:06.255Z,1.12
2023-03-27T17:25:03.066Z,0.95
2023-03-27T17:30:02.976Z,0.68
2023-03-27T17:35:02.908Z,0.67
2023-03-27T17:40:03.137Z,0.53
2023-03-27T17:45:02.894Z,0.45
2023-03-27T17:50:02.665Z,0.45
2023-03-27T17:55:03.105Z,0.52
2023-03-27T18:00:03.773Z,0.64
2023-03-27T18:05:02.454Z,0.82
2023-03-27T18:10:02.958Z,1.14
2023-03-27T18:15:02.983Z,0.95
2023-03-27T18:20:02.703Z,0.63
2023-03-27T18:25:02.413Z,0.5
2023-03-27T18:30:02.268Z,0.55
2023-03-27T18:35:03.091Z,0.44
2023-03-27T18:40:02.965Z,0.19
2023-03-27T18:45:02.886Z,-0.03
2023-03-27T18:50:02.726Z,0.25
2023-03-27T18:55:03.598Z,0.07
2023-03-27T19:00:02.513Z,0.04
2023-03-27T19:05:02.226Z,0.06
2023-03-27T19:10:02.180Z,0.17
2023-03-27T19:15:10.003Z,0.27
2023-03-27T19:20:03.151Z,0.07
2023-03-27T19:25:02.908Z,-0.14
2023-03-27T19:30:02.652Z,-0.19
2023-03-27T19:35:02.508Z,-0.13
2023-03-27T19:40:03.100Z,-0.18
2023-03-27T19:45:02.936Z,-0.09
2023-03-27T19:50:02.558Z,-0.18
2023-03-27T19:55:03.222Z,-0.12
2023-03-27T20:00:03.150Z,0.06
2023-03-27T20:05:02.800Z,0.13
2023-03-27T20:10:02.816Z,0.25
2023-03-27T20:15:11.375Z,0.37
2023-03-27T20:20:03.021Z,0.37
2023-03-27T20:25:02.977Z,0.25
2023-03-27T20:30:02.701Z,0.21
2023-03-27T20:35:07.418Z,0.24
2023-03-27T20:40:02.656Z,0.17
2023-03-27T20:45:02.622Z,0.19
2023-03-27T20:50:02.328Z,0.05
2023-03-27T20:55:04.099Z,0.11
2023-03-27T21:00:02.859Z,0.03
2023-03-27T21:05:02.593Z,0.22
2023-03-27T21:10:02.403Z,0.29
2023-03-27T21:15:03.222Z,0.46
2023-03-27T21:20:02.968Z,0.57
2023-03-27T21:25:02.636Z,0.61
2023-03-27T21:30:02.609Z,0.47
2023-03-27T21:35:02.767Z,0.33
2023-03-27T21:40:02.467Z,0.59
2023-03-27T21:45:02.312Z,0.34
2023-03-27T21:50:03.304Z,0.56
2023-03-27T21:55:04.281Z,0.3
2023-03-27T22:00:02.755Z,0.37
2023-03-27T22:05:02.411Z,0.32
2023-03-27T22:10:02.194Z,0.3
2023-03-27T22:15:02.372Z,0.33
2023-03-27T22:20:03.108Z,0.18
2023-03-27T22:25:02.888Z,0.23
2023-03-27T22:30:03.118Z,0.34
2023-03-27T22:35:02.755Z,0.24
2023-03-27T22:40:02.506Z,0.33
2023-03-27T22:45:02.360Z,0.36
2023-03-27T22:50:03.082Z,0.24
2023-03-27T22:55:03.277Z,0.3
2023-03-27T23:00:02.531Z,0.36
2023-03-27T23:05:02.331Z,0.29
2023-03-27T23:10:03.040Z,0.24
2023-03-27T23:15:02.941Z,0.31
2023-03-27T23:20:02.605Z,0.5
2023-03-27T23:25:02.408Z,0.64
2023-03-27T23:30:02.239Z,0.76
2023-03-27T23:35:03.029Z,0.77
2023-03-27T23:40:03.080Z,0.66
2023-03-27T23:45:02.851Z,0.64
2023-03-27T23:50:02.493Z,0.53
2023-03-27T23:55:03.745Z,0.84
